Time;durP1;ratioP1;P1;durP2;ratioP2;P2;SDS_P1;SDS_P2;PMS_P1;PMS_P2;Temp;Humidity;BMP_temperature;BMP_pressure;BME280_temperature;BME280_humidity;BME280_pressure;Samples;Min_cycle;Max_cycle;Signal;HPM_P1;HPM_P2
2022/11/24 00:01:40;;;;;;;5.88;0.77;;;7.00;99.90;;;;;;4876299;29;20044;-81
2022/11/24 00:04:06;;;;;;;9.75;0.93;;;7.10;99.90;;;;;;4889459;29;20037;-83
2022/11/24 00:06:34;;;;;;;8.32;0.70;;;7.10;99.90;;;;;;4889070;29;20025;-85
2022/11/24 00:09:00;;;;;;;8.32;0.60;;;7.10;99.90;;;;;;4888101;29;20131;-82
2022/11/24 00:11:32;;;;;;;7.30;0.85;;;7.10;99.90;;;;;;4874512;29;20028;-86
2022/11/24 00:13:59;;;;;;;7.47;0.70;;;7.10;99.90;;;;;;4888194;29;20135;-83
2022/11/24 00:16:30;;;;;;;9.38;0.95;;;7.10;99.90;;;;;;4873736;29;20025;-82
2022/11/24 00:18:58;;;;;;;5.60;0.60;;;7.00;99.90;;;;;;4890040;29;20035;-84
2022/11/24 00:21:25;;;;;;;8.40;0.70;;;7.00;99.90;;;;;;4904742;29;20028;-84
2022/11/24 00:23:51;;;;;;;5.35;0.68;;;7.10;99.90;;;;;;4890028;29;20040;-84
2022/11/24 00:26:19;;;;;;;5.13;0.50;;;7.10;99.90;;;;;;4889635;29;20036;-84
2022/11/24 00:28:47;;;;;;;12.48;0.90;;;7.10;99.90;;;;;;4889406;29;20393;-80
2022/11/24 00:31:31;;;;;;;6.05;0.40;;;7.00;99.90;;;;;;4889020;29;20033;-83
2022/11/24 00:33:59;;;;;;;6.38;0.50;;;6.90;99.90;;;;;;4888292;29;20478;-84
2022/11/24 00:36:28;;;;;;;7.10;0.50;;;6.90;99.90;;;;;;4886709;29;20033;-85
2022/11/24 00:38:55;;;;;;;5.85;0.60;;;7.00;99.90;;;;;;4890866;29;20500;-83
2022/11/24 00:41:21;;;;;;;4.70;0.52;;;6.90;99.90;;;;;;4873256;29;20035;-80
2022/11/24 00:43:47;;;;;;;9.07;0.70;;;6.90;99.90;;;;;;4906377;29;20083;-80
2022/11/24 00:46:13;;;;;;;9.25;0.90;;;7.00;99.90;;;;;;4872135;29;20120;-85
2022/11/24 00:48:39;;;;;;;7.43;0.70;;;7.00;99.90;;;;;;4891358;29;20523;-83
2022/11/24 00:51:07;;;;;;;10.15;0.70;;;6.90;99.90;;;;;;4889483;29;20578;-82
2022/11/24 00:53:33;;;;;;;6.60;1.08;;;6.90;99.90;;;;;;4871435;29;20053;-79
2022/11/24 00:55:59;;;;;;;9.95;0.60;;;6.90;99.90;;;;;;4888007;29;20021;-82
2022/11/24 00:58:25;;;;;;;6.57;0.50;;;6.90;99.90;;;;;;4869293;29;20473;-84
2022/11/24 01:00:51;;;;;;;7.68;0.60;;;6.90;99.90;;;;;;4889788;29;20101;-82
2022/11/24 01:03:19;;;;;;;9.15;0.73;;;6.90;99.90;;;;;;4892096;29;20044;-85
2022/11/24 01:05:45;;;;;;;9.18;0.77;;;6.90;99.90;;;;;;4888778;29;20133;-84
2022/11/24 01:08:11;;;;;;;4.88;0.70;;;7.00;99.90;;;;;;4871606;29;20146;-86
2022/11/24 01:10:37;;;;;;;8.07;0.50;;;6.90;99.90;;;;;;4890276;29;20111;-83
2022/11/24 01:13:03;;;;;;;7.80;0.60;;;7.00;99.90;;;;;;4887387;29;20109;-82
2022/11/24 01:15:29;;;;;;;7.20;0.70;;;7.00;99.90;;;;;;4890977;29;20024;-83
2022/11/24 01:17:56;;;;;;;6.97;0.50;;;6.90;99.90;;;;;;4876245;29;20176;-85
2022/11/24 01:20:22;;;;;;;7.90;0.60;;;7.00;99.90;;;;;;4888402;29;20032;-82
2022/11/24 01:22:48;;;;;;;8.15;1.20;;;7.10;99.90;;;;;;4890463;29;20025;-83
2022/11/24 01:25:14;;;;;;;9.98;1.80;;;6.90;99.90;;;;;;4886552;29;20028;-86
2022/11/24 01:27:40;;;;;;;8.93;1.67;;;7.00;99.90;;;;;;4904343;29;20024;-82
2022/11/24 01:30:08;;;;;;;8.52;1.65;;;6.90;99.90;;;;;;4889227;29;20036;-79
2022/11/24 01:32:35;;;;;;;8.20;1.10;;;6.90;99.90;;;;;;4890450;29;20508;-84
2022/11/24 01:35:01;;;;;;;7.18;0.52;;;6.80;99.90;;;;;;4875588;29;20089;-80
2022/11/24 01:37:27;;;;;;;5.35;0.50;;;6.80;99.90;;;;;;4873504;29;20045;-83
2022/11/24 01:39:53;;;;;;;4.38;0.57;;;6.90;99.90;;;;;;4889121;29;20040;-83
2022/11/24 01:42:18;;;;;;;5.22;0.50;;;6.90;99.90;;;;;;4894497;29;20116;-81
2022/11/24 01:44:44;;;;;;;6.95;0.43;;;7.00;99.90;;;;;;4900585;29;20051;-84
2022/11/24 01:47:29;;;;;;;7.35;0.47;;;7.10;99.90;;;;;;4895093;29;20107;-80
2022/11/24 01:49:59;;;;;;;10.60;0.60;;;7.10;99.90;;;;;;4891008;29;20561;-82
2022/11/24 01:52:37;;;;;;;9.30;0.85;;;7.10;99.90;;;;;;4893054;29;20068;-83
2022/11/24 01:55:08;;;;;;;9.35;1.75;;;7.20;99.90;;;;;;4891677;29;20036;-80
2022/11/24 01:58:00;;;;;;;6.68;0.40;;;7.20;99.90;;;;;;4888385;29;20449;-79
2022/11/24 02:00:26;;;;;;;8.45;0.50;;;7.10;99.90;;;;;;4892204;29;20489;-81
2022/11/24 02:02:52;;;;;;;6.55;0.88;;;7.10;99.90;;;;;;4894211;29;20037;-80
2022/11/24 02:05:25;;;;;;;6.40;0.40;;;7.20;99.90;;;;;;4893257;29;20029;-87
2022/11/24 02:07:54;;;;;;;5.47;0.57;;;7.10;99.90;;;;;;4907800;29;20060;-82
2022/11/24 02:10:20;;;;;;;4.57;0.47;;;7.10;99.90;;;;;;4893300;29;20052;-82
2022/11/24 02:12:49;;;;;;;11.32;1.42;;;7.10;99.90;;;;;;4890624;29;20045;-84
2022/11/24 02:15:16;;;;;;;7.68;0.55;;;7.00;99.90;;;;;;4891368;29;20093;-82
2022/11/24 02:17:42;;;;;;;4.15;0.35;;;7.00;99.90;;;;;;4876044;29;20116;-82
2022/11/24 02:20:09;;;;;;;5.40;0.55;;;7.00;99.90;;;;;;4890938;29;20068;-83
2022/11/24 02:22:49;;;;;;;8.55;1.15;;;7.00;99.90;;;;;;4892609;29;20084;-84
2022/11/24 02:25:38;;;;;;;8.93;1.35;;;7.10;99.90;;;;;;4887960;29;20029;-82
2022/11/24 02:28:11;;;;;;;7.80;0.50;;;7.00;99.90;;;;;;4891225;29;20039;-82
2022/11/24 02:30:38;;;;;;;7.55;0.90;;;6.90;99.90;;;;;;4899125;29;20036;-87
2022/11/24 02:33:03;;;;;;;9.63;0.90;;;6.90;99.90;;;;;;4893436;29;20036;-81
2022/11/24 02:35:31;;;;;;;8.38;0.80;;;7.00;99.90;;;;;;4889797;29;20504;-83
2022/11/24 02:37:56;;;;;;;6.60;0.60;;;6.90;99.90;;;;;;4876650;29;20473;-84
2022/11/24 02:40:25;;;;;;;9.77;1.10;;;7.00;99.90;;;;;;4878276;29;20068;-83
2022/11/24 02:42:59;;;;;;;7.32;0.93;;;7.00;99.90;;;;;;4893685;29;20111;-81
2022/11/24 02:45:26;;;;;;;8.73;0.55;;;7.10;99.90;;;;;;4890087;29;20020;-83
2022/11/24 02:47:51;;;;;;;6.30;1.38;;;7.10;99.90;;;;;;4891962;29;20020;-81
2022/11/24 02:50:17;;;;;;;5.85;1.00;;;7.10;99.90;;;;;;4890814;29;20438;-84
2022/11/24 02:52:43;;;;;;;7.93;1.10;;;7.20;99.90;;;;;;4890363;29;20430;-81
2022/11/24 02:55:09;;;;;;;11.52;1.92;;;7.20;99.90;;;;;;4892847;29;20031;-83
2022/11/24 02:57:34;;;;;;;11.02;2.50;;;7.20;99.90;;;;;;4887825;29;20029;-83
2022/11/24 03:00:00;;;;;;;8.30;0.80;;;7.20;99.90;;;;;;4888784;29;20067;-80
2022/11/24 03:02:26;;;;;;;8.38;0.65;;;7.20;99.90;;;;;;4893145;29;20037;-85
2022/11/24 03:04:52;;;;;;;6.38;0.68;;;7.10;99.90;;;;;;4892472;29;20037;-85
2022/11/24 03:07:18;;;;;;;6.10;1.10;;;7.20;99.90;;;;;;4876095;29;20028;-83
2022/11/24 03:09:43;;;;;;;7.32;0.70;;;7.20;99.90;;;;;;4890873;29;20044;-84
2022/11/24 03:12:09;;;;;;;8.35;1.00;;;7.20;99.90;;;;;;4904870;29;20496;-82
2022/11/24 03:14:35;;;;;;;7.13;0.80;;;7.20;99.90;;;;;;4873791;29;20081;-81
2022/11/24 03:17:00;;;;;;;9.43;1.10;;;7.10;99.90;;;;;;4888094;29;20389;-83
2022/11/24 03:19:26;;;;;;;8.55;1.67;;;7.10;99.90;;;;;;4906823;29;20036;-84
2022/11/24 03:21:52;;;;;;;11.98;1.45;;;7.20;99.90;;;;;;4906441;29;20029;-85
2022/11/24 03:24:17;;;;;;;9.25;1.55;;;7.30;99.90;;;;;;4889624;29;20037;-85
2022/11/24 03:26:43;;;;;;;6.65;0.60;;;7.20;99.90;;;;;;4874149;29;20036;-84
2022/11/24 03:29:09;;;;;;;7.75;1.63;;;7.20;99.90;;;;;;4906578;29;20037;-81
2022/11/24 03:31:35;;;;;;;6.25;1.10;;;7.20;99.90;;;;;;4889401;29;20021;-84
2022/11/24 03:34:00;;;;;;;7.45;1.10;;;7.10;99.90;;;;;;4892078;29;20500;-79
2022/11/24 03:36:26;;;;;;;6.88;1.13;;;7.10;99.90;;;;;;4890876;29;20024;-80
2022/11/24 03:38:52;;;;;;;11.63;1.23;;;7.00;99.90;;;;;;4874496;29;20814;-85
2022/11/24 03:41:18;;;;;;;8.75;1.50;;;7.10;99.90;;;;;;4877612;29;20072;-86
2022/11/24 03:43:43;;;;;;;7.88;1.35;;;7.10;99.90;;;;;;4905593;29;20048;-86
2022/11/24 03:46:09;;;;;;;13.05;1.58;;;7.20;99.90;;;;;;4875259;29;20025;-85
2022/11/24 03:48:35;;;;;;;10.50;1.23;;;7.30;99.90;;;;;;4890000;29;20044;-83
2022/11/24 03:51:02;;;;;;;8.90;1.33;;;7.30;99.90;;;;;;4905819;29;20020;-82
2022/11/24 03:53:29;;;;;;;10.85;1.35;;;7.20;99.90;;;;;;4889680;29;20142;-82
2022/11/24 03:55:55;;;;;;;8.13;1.50;;;7.20;99.90;;;;;;4872147;29;20039;-80
2022/11/24 03:58:21;;;;;;;12.10;2.20;;;7.20;99.90;;;;;;4887538;29;20477;-84
2022/11/24 04:00:48;;;;;;;9.75;1.23;;;7.10;99.90;;;;;;4873938;29;20116;-83
2022/11/24 04:03:14;;;;;;;10.98;1.30;;;7.00;99.90;;;;;;4889391;29;20163;-84
2022/11/24 04:05:40;;;;;;;12.60;2.00;;;7.10;99.90;;;;;;4876480;29;20473;-85
2022/11/24 04:08:06;;;;;;;12.07;2.13;;;7.10;99.90;;;;;;4897988;29;20092;-84
2022/11/24 04:10:35;;;;;;;7.93;1.42;;;7.10;99.90;;;;;;4904771;29;20033;-86
2022/11/24 04:13:01;;;;;;;7.88;1.23;;;7.10;99.90;;;;;;4872434;29;20037;-82
2022/11/24 04:15:27;;;;;;;6.25;1.50;;;7.10;99.90;;;;;;4898986;29;20056;-80
2022/11/24 04:17:54;;;;;;;10.52;1.10;;;7.10;99.90;;;;;;4887448;29;20071;-85
2022/11/24 04:20:19;;;;;;;8.27;1.13;;;7.10;99.90;;;;;;4891383;29;20025;-84
2022/11/24 04:22:45;;;;;;;9.88;0.80;;;7.20;99.90;;;;;;4889011;29;20032;-84
2022/11/24 04:25:11;;;;;;;9.38;1.55;;;7.20;99.90;;;;;;4891333;29;20025;-86
2022/11/24 04:27:37;;;;;;;10.40;1.27;;;7.30;99.90;;;;;;4904533;29;20065;-85
2022/11/24 04:30:05;;;;;;;9.55;1.33;;;7.30;99.90;;;;;;4891378;29;20028;-84
2022/11/24 04:32:30;;;;;;;9.70;1.10;;;7.40;99.90;;;;;;4873472;29;20434;-84
2022/11/24 04:34:56;;;;;;;12.02;1.13;;;7.30;99.90;;;;;;4904818;29;20036;-85
2022/11/24 04:37:22;;;;;;;6.88;0.45;;;7.30;99.90;;;;;;4883753;29;20057;-80
2022/11/24 04:39:47;;;;;;;7.25;0.50;;;7.20;99.90;;;;;;4869913;29;20093;-81
2022/11/24 04:42:13;;;;;;;9.63;0.70;;;7.20;99.90;;;;;;4871406;29;20025;-84
2022/11/24 04:44:38;;;;;;;11.18;0.55;;;7.30;99.90;;;;;;4869761;29;20382;-85
2022/11/24 04:47:05;;;;;;;7.70;0.70;;;7.20;99.90;;;;;;4871651;29;20077;-80
2022/11/24 04:49:31;;;;;;;6.07;0.40;;;7.10;99.90;;;;;;4871607;29;20456;-84
2022/11/24 04:51:57;;;;;;;8.30;0.60;;;7.20;99.90;;;;;;4873571;29;20541;-79
2022/11/24 04:54:22;;;;;;;8.48;0.47;;;7.20;99.90;;;;;;4874787;29;20037;-82
2022/11/24 04:56:52;;;;;;;6.55;0.40;;;7.10;99.90;;;;;;4869780;29;20017;-79
2022/11/24 04:59:18;;;;;;;8.80;0.50;;;7.10;99.90;;;;;;4886405;29;20043;-83
2022/11/24 05:01:45;;;;;;;9.00;1.05;;;7.10;99.90;;;;;;4878102;29;20079;-81
2022/11/24 05:04:12;;;;;;;7.15;0.40;;;7.10;99.90;;;;;;4885933;29;20081;-79
2022/11/24 05:06:39;;;;;;;6.97;0.65;;;7.00;99.90;;;;;;4884385;29;20040;-82
2022/11/24 05:09:06;;;;;;;5.78;0.60;;;7.10;99.90;;;;;;4886213;29;20490;-79
2022/11/24 05:11:32;;;;;;;4.95;0.47;;;7.10;99.90;;;;;;4884880;29;20120;-81
2022/11/24 05:13:58;;;;;;;7.57;0.95;;;7.10;99.90;;;;;;4884860;29;20080;-80
2022/11/24 05:16:23;;;;;;;8.02;0.60;;;7.20;99.90;;;;;;4887400;29;20057;-83
2022/11/24 05:18:49;;;;;;;7.22;1.10;;;7.20;99.90;;;;;;4885833;29;20077;-84
2022/11/24 05:21:15;;;;;;;4.05;0.50;;;7.20;99.90;;;;;;4887475;29;20041;-82
2022/11/24 05:23:40;;;;;;;6.07;1.25;;;7.30;99.90;;;;;;4871591;29;20040;-80
2022/11/24 05:26:06;;;;;;;6.72;0.77;;;7.30;99.90;;;;;;4883553;29;20371;-82
2022/11/24 05:28:32;;;;;;;9.80;0.73;;;7.40;99.90;;;;;;4886899;29;20040;-80
2022/11/24 05:31:02;;;;;;;11.10;1.27;;;7.40;99.90;;;;;;4872776;29;20472;-79
2022/11/24 05:33:29;;;;;;;6.72;0.60;;;7.50;99.90;;;;;;4875487;29;20486;-79
2022/11/24 05:35:59;;;;;;;9.80;0.77;;;7.40;99.90;;;;;;4872006;29;20046;-85
2022/11/24 05:38:25;;;;;;;;;;;7.40;99.90;;;;;;4871744;29;20036;-83
2022/11/24 05:40:51;;;;;;;10.38;0.90;;;7.50;99.90;;;;;;4887926;29;19911;-79
2022/11/24 05:43:16;;;;;;;8.80;0.60;;;7.40;99.90;;;;;;4885587;29;20120;-80
2022/11/24 05:45:43;;;;;;;12.77;1.13;;;7.50;99.90;;;;;;4871230;29;20124;-80
2022/11/24 05:48:11;;;;;;;6.50;0.50;;;7.50;99.90;;;;;;4889111;29;20498;-78
2022/11/24 05:50:37;;;;;;;7.00;0.50;;;7.50;99.90;;;;;;4887781;29;20037;-83
2022/11/24 05:53:08;;;;;;;6.38;0.40;;;7.50;99.90;;;;;;4872956;29;20058;-81
2022/11/24 05:55:35;;;;;;;8.90;0.95;;;7.50;99.90;;;;;;4888321;29;20033;-81
2022/11/24 05:58:02;;;;;;;5.93;0.60;;;7.50;99.90;;;;;;4855613;29;20546;-82
2022/11/24 06:00:29;;;;;;;10.55;0.80;;;7.60;99.90;;;;;;4880719;29;20078;-79
2022/11/24 06:02:59;;;;;;;5.88;0.43;;;7.60;99.90;;;;;;4871189;29;20033;-82
2022/11/24 06:05:26;;;;;;;5.00;0.40;;;7.50;99.90;;;;;;4870767;29;20057;-79
2022/11/24 06:07:52;;;;;;;4.90;0.30;;;7.50;99.90;;;;;;4871192;29;20512;-80
2022/11/24 06:10:20;;;;;;;3.55;0.30;;;7.50;99.90;;;;;;4886886;29;20037;-81
2022/11/24 06:12:46;;;;;;;4.88;0.40;;;7.40;99.90;;;;;;4887420;29;20055;-79
2022/11/24 06:15:12;;;;;;;4.60;0.30;;;7.40;99.90;;;;;;4869303;29;20036;-79
2022/11/24 06:17:38;;;;;;;4.70;0.30;;;7.40;99.90;;;;;;4853725;29;20037;-81
2022/11/24 06:20:05;;;;;;;3.20;0.38;;;7.40;99.90;;;;;;4886761;29;20409;-79
2022/11/24 06:22:31;;;;;;;3.67;0.22;;;7.40;99.90;;;;;;4870921;29;20155;-82
2022/11/24 06:24:57;;;;;;;1.90;0.20;;;7.40;99.90;;;;;;4886747;29;20029;-81
2022/11/24 06:27:23;;;;;;;1.95;0.20;;;7.40;99.90;;;;;;4886342;29;20037;-80
2022/11/24 06:29:48;;;;;;;1.98;0.20;;;7.40;99.90;;;;;;4871357;29;20033;-80
2022/11/24 06:32:15;;;;;;;6.13;0.30;;;7.40;99.90;;;;;;4885862;29;20041;-81
2022/11/24 06:34:40;;;;;;;2.17;0.20;;;7.50;99.90;;;;;;4871850;29;20101;-80
2022/11/24 06:37:06;;;;;;;1.88;0.20;;;7.50;99.90;;;;;;4886002;29;20517;-81
2022/11/24 06:39:32;;;;;;;2.78;0.38;;;7.50;99.90;;;;;;4849497;29;20045;-79
2022/11/24 06:41:57;;;;;;;1.65;0.20;;;7.50;99.90;;;;;;4867064;29;20036;-81
2022/11/24 06:44:23;;;;;;;1.17;0.10;;;7.50;99.90;;;;;;4870864;29;20046;-82
2022/11/24 06:46:49;;;;;;;1.05;0.10;;;7.50;99.90;;;;;;4852944;29;20387;-80
2022/11/24 06:49:14;;;;;;;1.58;0.20;;;7.40;99.90;;;;;;4854823;29;20038;-82
2022/11/24 06:51:41;;;;;;;3.53;0.30;;;7.50;99.90;;;;;;4868700;29;20057;-81
2022/11/24 06:54:08;;;;;;;1.55;0.20;;;7.50;99.90;;;;;;4870274;29;20103;-85
2022/11/24 06:56:34;;;;;;;2.20;0.20;;;7.50;99.90;;;;;;4868838;29;20455;-80
2022/11/24 06:59:00;;;;;;;0.82;0.20;;;7.50;99.90;;;;;;4869608;29;20037;-79
2022/11/24 07:01:28;;;;;;;0.82;0.10;;;7.40;99.90;;;;;;4858557;29;20043;-80
2022/11/24 07:03:55;;;;;;;0.80;0.13;;;7.40;99.90;;;;;;4859385;29;20104;-79
2022/11/24 07:06:22;;;;;;;2.25;0.20;;;7.40;99.90;;;;;;4868289;29;20091;-83
2022/11/24 07:08:49;;;;;;;2.08;0.20;;;7.40;99.90;;;;;;4868700;29;20029;-81
2022/11/24 07:11:19;;;;;;;3.03;0.30;;;7.40;99.90;;;;;;4880293;29;20089;-79
2022/11/24 07:13:46;;;;;;;1.58;0.20;;;7.40;99.90;;;;;;4869936;29;20056;-80
2022/11/24 07:16:17;;;;;;;1.70;0.10;;;7.40;99.90;;;;;;4879592;29;20065;-84
2022/11/24 07:18:44;;;;;;;1.88;0.10;;;7.40;99.90;;;;;;4886369;29;20096;-80
2022/11/24 07:21:10;;;;;;;0.93;0.10;;;7.40;99.90;;;;;;4881100;29;20030;-79
2022/11/24 07:23:36;;;;;;;0.70;0.10;;;7.40;99.90;;;;;;4870771;29;20080;-80
2022/11/24 07:26:03;;;;;;;2.90;0.20;;;7.40;99.90;;;;;;4884508;29;20021;-80
2022/11/24 07:28:29;;;;;;;3.30;0.40;;;7.40;99.90;;;;;;4877030;29;20112;-81
2022/11/24 07:30:55;;;;;;;2.35;0.40;;;7.40;99.90;;;;;;4886445;29;20127;-81
2022/11/24 07:33:24;;;;;;;5.18;1.27;;;7.40;99.90;;;;;;4883070;29;20041;-80
2022/11/24 07:35:52;;;;;;;9.55;2.10;;;7.50;99.90;;;;;;4873307;29;20146;-79
2022/11/24 07:38:19;;;;;;;7.38;1.73;;;7.60;99.90;;;;;;4885879;29;20512;-79
2022/11/24 07:40:45;;;;;;;5.38;1.70;;;7.60;99.90;;;;;;4886476;29;20081;-79
2022/11/24 07:43:10;;;;;;;10.32;2.80;;;7.60;99.90;;;;;;4886817;29;20040;-79
2022/11/24 07:45:36;;;;;;;7.43;2.40;;;7.70;99.90;;;;;;4868989;29;20044;-80
2022/11/24 07:48:02;;;;;;;7.28;1.73;;;7.70;99.90;;;;;;4868961;29;20037;-84
2022/11/24 07:50:28;;;;;;;5.53;1.73;;;7.80;99.90;;;;;;4869898;29;20508;-83
2022/11/24 07:52:53;;;;;;;4.55;1.50;;;7.80;99.90;;;;;;4885999;29;20498;-83
2022/11/24 07:55:19;;;;;;;5.47;1.80;;;7.80;99.90;;;;;;4886154;29;20029;-79
2022/11/24 07:57:44;;;;;;;6.88;2.10;;;7.80;99.90;;;;;;4880168;29;20029;-82
2022/11/24 08:00:11;;;;;;;6.47;1.80;;;7.90;99.90;;;;;;4868818;29;20029;-81
2022/11/24 08:02:37;;;;;;;8.02;2.70;;;7.80;99.90;;;;;;4868351;29;20120;-82
2022/11/24 08:05:03;;;;;;;7.60;3.03;;;7.90;99.90;;;;;;4871920;29;20171;-81
2022/11/24 08:07:29;;;;;;;8.85;2.80;;;7.90;99.90;;;;;;4872449;29;20036;-82
2022/11/24 08:09:55;;;;;;;8.35;2.55;;;7.80;99.90;;;;;;4884761;29;20037;-80
2022/11/24 08:12:21;;;;;;;7.78;2.80;;;7.90;99.90;;;;;;4879829;29;20044;-81
2022/11/24 08:14:49;;;;;;;7.80;2.63;;;7.80;99.90;;;;;;4870834;29;20037;-79
2022/11/24 08:17:16;;;;;;;7.78;3.33;;;7.80;99.90;;;;;;4871031;29;20116;-85
2022/11/24 08:19:42;;;;;;;8.65;3.53;;;7.80;99.90;;;;;;4883607;29;20033;-80
2022/11/24 08:22:08;;;;;;;7.32;2.67;;;7.80;99.90;;;;;;4869365;29;20056;-80
2022/11/24 08:24:34;;;;;;;8.75;3.90;;;7.80;99.90;;;;;;4884085;29;20033;-81
2022/11/24 08:26:59;;;;;;;12.38;4.03;;;7.90;99.90;;;;;;4880278;29;20405;-85
2022/11/24 08:29:29;;;;;;;8.57;3.55;;;7.90;99.90;;;;;;4878043;29;20037;-80
2022/11/24 08:31:56;;;;;;;7.68;2.80;;;7.90;99.90;;;;;;4884239;29;20381;-80
2022/11/24 08:34:25;;;;;;;8.00;3.42;;;7.90;99.90;;;;;;4868319;29;20038;-83
2022/11/24 08:36:51;;;;;;;7.13;2.45;;;7.90;99.90;;;;;;4854249;29;20060;-81
2022/11/24 08:39:17;;;;;;;5.35;2.50;;;7.90;99.90;;;;;;4869450;29;20120;-81
2022/11/24 08:41:43;;;;;;;7.00;2.30;;;7.80;99.90;;;;;;4884205;29;20033;-83
2022/11/24 08:44:09;;;;;;;5.20;1.75;;;7.80;99.90;;;;;;4884022;29;20093;-80
2022/11/24 08:46:35;;;;;;;4.90;1.20;;;7.80;99.90;;;;;;4878898;29;20036;-80
2022/11/24 08:49:01;;;;;;;5.53;1.63;;;7.90;99.90;;;;;;4871835;29;20354;-83
2022/11/24 08:51:27;;;;;;;5.32;1.00;;;7.90;99.90;;;;;;4892869;29;20561;-82
2022/11/24 08:53:55;;;;;;;5.90;1.35;;;7.90;99.90;;;;;;4873955;29;20131;-80
2022/11/24 08:56:21;;;;;;;4.85;1.00;;;7.90;99.90;;;;;;4888296;29;20043;-80
2022/11/24 08:58:47;;;;;;;5.28;1.33;;;8.00;99.90;;;;;;4886290;29;20041;-80
2022/11/24 09:01:14;;;;;;;8.68;1.38;;;8.10;99.90;;;;;;4873489;29;20026;-80
2022/11/24 09:03:42;;;;;;;3.60;1.13;;;8.20;99.90;;;;;;4891044;29;20109;-80
2022/11/24 09:06:08;;;;;;;5.72;1.10;;;8.30;99.90;;;;;;4876872;29;20465;-81
2022/11/24 09:08:34;;;;;;;7.22;1.02;;;8.20;99.90;;;;;;4871068;29;20453;-83
2022/11/24 09:11:06;;;;;;;5.80;1.00;;;8.30;99.90;;;;;;4877310;29;20124;-85
2022/11/24 09:13:32;;;;;;;4.78;0.80;;;8.30;99.90;;;;;;4888515;29;20055;-85
2022/11/24 09:16:06;;;;;;;7.93;0.82;;;8.30;99.90;;;;;;4883655;29;20040;-80
2022/11/24 09:18:32;;;;;;;6.20;1.23;;;8.40;99.90;;;;;;4875746;29;20030;-82
2022/11/24 09:21:18;;;;;;;4.97;0.60;;;8.40;99.90;;;;;;4885782;29;20040;-83
2022/11/24 09:23:46;;;;;;;6.93;0.88;;;8.40;99.90;;;;;;4889043;29;20041;-81
2022/11/24 09:26:20;;;;;;;4.10;0.63;;;8.40;99.90;;;;;;4875656;29;20032;-81
2022/11/24 09:28:46;;;;;;;5.45;0.50;;;8.40;99.90;;;;;;4875709;29;20037;-82
2022/11/24 09:31:15;;;;;;;6.50;0.40;;;8.50;99.90;;;;;;4877360;29;20026;-83
2022/11/24 09:33:41;;;;;;;2.63;0.70;;;8.60;99.90;;;;;;4890615;29;20124;-82
2022/11/24 09:36:07;;;;;;;2.88;0.40;;;8.60;99.90;;;;;;4890893;29;20056;-80
2022/11/24 09:38:32;;;;;;;3.22;0.50;;;8.50;99.90;;;;;;4882268;29;20493;-83
2022/11/24 09:41:13;;;;;;;5.03;0.60;;;8.40;99.90;;;;;;4891290;29;20540;-80
2022/11/24 09:43:58;;;;;;;5.55;0.40;;;8.40;99.90;;;;;;4874114;29;20060;-83
2022/11/24 09:46:58;;;;;;;6.43;0.50;;;8.40;99.90;;;;;;4857069;29;20033;-82
2022/11/24 09:49:38;;;;;;;4.68;0.50;;;8.30;99.90;;;;;;4858909;29;20044;-84
2022/11/24 09:52:15;;;;;;;1.65;0.40;;;8.30;99.90;;;;;;4888408;29;20035;-80
2022/11/24 09:54:59;;;;;;;5.78;0.80;;;8.30;99.90;;;;;;4874843;29;21028;-81
2022/11/24 09:57:28;;;;;;;5.78;0.40;;;8.20;99.90;;;;;;4874501;29;20021;-83
2022/11/24 10:00:00;;;;;;;2.08;0.30;;;8.30;99.90;;;;;;4876845;29;20112;-83
2022/11/24 10:02:26;;;;;;;3.03;0.30;;;8.40;99.90;;;;;;4887397;29;20216;-81
2022/11/24 10:04:53;;;;;;;4.72;0.50;;;8.70;99.90;;;;;;4887309;29;20037;-81
2022/11/24 10:07:36;;;;;;;1.83;0.30;;;8.90;99.90;;;;;;4870069;29;20033;-82
2022/11/24 10:10:16;;;;;;;4.28;0.50;;;9.00;99.90;;;;;;4869996;29;20025;-79
2022/11/24 10:12:44;;;;;;;2.93;0.40;;;9.10;99.90;;;;;;4884167;29;20037;-86
2022/11/24 10:15:35;;;;;;;3.33;0.30;;;9.10;99.90;;;;;;4873413;29;20277;-82
2022/11/24 10:18:26;;;;;;;7.00;1.08;;;9.10;99.90;;;;;;4870557;29;20045;-79
2022/11/24 10:21:05;;;;;;;5.50;0.70;;;9.10;99.90;;;;;;4845302;29;20417;-80
2022/11/24 10:23:46;;;;;;;5.15;0.50;;;9.20;99.90;;;;;;4862595;29;20049;-85
2022/11/24 10:26:32;;;;;;;3.85;0.50;;;9.30;99.90;;;;;;4847948;29;20041;-81
2022/11/24 10:28:58;;;;;;;5.55;0.40;;;9.30;99.90;;;;;;4840239;29;20045;-83
2022/11/24 10:31:29;;;;;;;3.83;0.40;;;9.50;99.90;;;;;;4864675;29;20040;-80
2022/11/24 10:34:01;;;;;;;3.90;0.40;;;9.60;99.90;;;;;;4864739;29;20040;-82
2022/11/24 10:36:48;;;;;;;5.18;0.45;;;9.70;99.90;;;;;;4830564;29;20588;-82
2022/11/24 10:39:38;;;;;;;2.97;0.30;;;9.70;99.90;;;;;;4840643;29;20037;-83
2022/11/24 10:42:22;;;;;;;6.18;0.60;;;9.80;99.90;;;;;;4841227;29;20044;-82
2022/11/24 10:45:01;;;;;;;8.07;0.90;;;9.80;99.90;;;;;;4835150;29;20116;-80
2022/11/24 10:47:27;;;;;;;7.45;0.82;;;9.80;99.90;;;;;;4847639;29;20059;-81
2022/11/24 10:50:03;;;;;;;5.88;0.47;;;9.70;99.90;;;;;;4833625;29;20040;-82
2022/11/24 10:52:35;;;;;;;6.10;0.63;;;9.80;99.90;;;;;;4862398;29;20041;-84
2022/11/24 10:55:04;;;;;;;4.00;0.40;;;9.90;99.90;;;;;;4830130;29;20043;-81
2022/11/24 10:57:36;;;;;;;7.00;0.52;;;10.00;99.90;;;;;;4844395;29;20045;-82
2022/11/24 11:00:24;;;;;;;4.57;0.52;;;10.10;99.90;;;;;;4872412;29;20070;-83
2022/11/24 11:03:10;;;;;;;3.55;0.47;;;10.10;99.90;;;;;;4848354;29;20064;-82
2022/11/24 11:05:40;;;;;;;8.05;0.50;;;10.10;99.90;;;;;;4870743;29;20032;-80
2022/11/24 11:08:12;;;;;;;7.93;0.50;;;10.10;99.90;;;;;;4883312;29;20029;-80
2022/11/24 11:10:39;;;;;;;4.95;0.60;;;10.10;99.90;;;;;;4886717;29;20025;-84
2022/11/24 11:13:29;;;;;;;8.63;0.47;;;9.90;99.90;;;;;;4860759;29;20413;-85
2022/11/24 11:15:57;;;;;;;8.68;0.63;;;10.00;99.90;;;;;;4884838;29;20489;-81
2022/11/24 11:18:30;;;;;;;13.48;1.13;;;10.20;99.90;;;;;;4887079;29;20040;-79
2022/11/24 11:21:00;;;;;;;5.95;0.75;;;10.20;99.90;;;;;;4870962;29;20038;-82
2022/11/24 11:23:34;;;;;;;9.80;0.70;;;10.30;99.90;;;;;;4869249;29;20045;-82
2022/11/24 11:26:22;;;;;;;6.18;0.80;;;10.40;99.90;;;;;;4871316;29;20377;-82
2022/11/24 11:29:03;;;;;;;8.05;0.65;;;10.50;99.90;;;;;;4870872;29;20029;-81
2022/11/24 11:31:32;;;;;;;5.80;0.60;;;10.40;99.90;;;;;;4870464;29;20073;-81
2022/11/24 11:34:08;;;;;;;7.38;1.10;;;10.50;99.90;;;;;;4869317;29;20041;-80
2022/11/24 11:36:38;;;;;;;5.15;0.40;;;10.50;99.90;;;;;;4869943;29;20603;-81
2022/11/24 11:39:04;;;;;;;2.63;0.67;;;10.50;99.90;;;;;;4872746;29;20113;-84
2022/11/24 11:41:37;;;;;;;10.75;0.60;;;10.60;99.90;;;;;;4879777;29;20021;-84
2022/11/24 11:44:23;;;;;;;8.32;0.60;;;10.60;99.90;;;;;;4853402;29;20041;-79
2022/11/24 11:46:49;;;;;;;8.48;1.20;;;10.60;99.90;;;;;;4871130;29;20029;-79
2022/11/24 11:49:15;;;;;;;6.50;0.47;;;10.70;99.90;;;;;;4869705;29;20398;-80
2022/11/24 11:51:56;;;;;;;7.60;0.50;;;10.70;99.90;;;;;;4874005;29;20037;-82
2022/11/24 11:54:22;;;;;;;10.18;0.90;;;10.70;99.90;;;;;;4885255;29;20040;-80
2022/11/24 11:56:52;;;;;;;9.70;1.10;;;10.60;99.90;;;;;;4867223;29;20405;-81
2022/11/24 11:59:30;;;;;;;5.75;0.70;;;10.70;99.90;;;;;;4869705;29;20025;-81
2022/11/24 12:02:22;;;;;;;6.13;0.50;;;10.80;99.90;;;;;;4869953;29;20045;-80
2022/11/24 12:05:00;;;;;;;5.10;0.40;;;10.90;99.90;;;;;;4862528;29;20040;-80
2022/11/24 12:07:47;;;;;;;5.43;0.80;;;10.90;99.90;;;;;;4884880;29;20533;-80
2022/11/24 12:10:35;;;;;;;6.13;0.93;;;10.90;99.90;;;;;;4883148;29;20036;-83
2022/11/24 12:13:32;;;;;;;5.95;0.50;;;11.00;99.90;;;;;;4870204;29;20037;-81
2022/11/24 12:16:09;;;;;;;11.00;0.50;;;11.00;99.90;;;;;;4848600;29;20646;-80
2022/11/24 12:18:48;;;;;;;7.43;0.52;;;10.90;99.90;;;;;;4869485;29;20081;-80
2022/11/24 12:21:19;;;;;;;5.90;0.40;;;11.00;99.90;;;;;;4869533;29;20029;-80
2022/11/24 12:24:22;;;;;;;5.72;0.50;;;11.00;99.90;;;;;;4864655;29;20506;-83
2022/11/24 12:27:25;;;;;;;5.38;0.60;;;11.10;99.90;;;;;;4858242;29;20552;-82
2022/11/24 12:30:05;;;;;;;3.30;0.40;;;11.10;99.90;;;;;;4817166;29;20035;-83
2022/11/24 12:33:12;;;;;;;5.38;0.50;;;11.10;99.90;;;;;;4826438;29;20169;-86
2022/11/24 12:35:41;;;;;;;5.80;0.50;;;11.00;99.90;;;;;;4830182;29;20460;-83
2022/11/24 12:38:34;;;;;;;7.88;0.50;;;11.10;99.90;;;;;;4828839;29;20049;-81
2022/11/24 12:41:15;;;;;;;7.85;0.60;;;11.00;99.90;;;;;;4815035;29;20137;-84
2022/11/24 12:43:51;;;;;;;7.72;0.70;;;11.10;99.90;;;;;;4829632;29;20101;-83
2022/11/24 12:46:35;;;;;;;4.75;0.50;;;11.20;99.90;;;;;;4815613;29;20061;-80
2022/11/24 12:49:26;;;;;;;5.05;0.60;;;11.10;99.90;;;;;;4830703;29;20022;-80
2022/11/24 12:52:00;;;;;;;;;;;11.10;99.90;;;;;;4816382;29;20159;-83
2022/11/24 12:54:39;;;;;;;7.90;0.60;;;11.00;99.90;;;;;;4815768;29;20398;-82
2022/11/24 12:57:14;;;;;;;7.43;0.60;;;11.10;99.90;;;;;;4829627;29;20137;-81
2022/11/24 13:00:06;;;;;;;7.80;0.60;;;11.10;99.90;;;;;;4830619;29;20038;-86
2022/11/24 13:03:04;;;;;;;6.47;0.50;;;11.10;99.90;;;;;;4831344;29;20514;-83
2022/11/24 13:05:54;;;;;;;5.07;0.50;;;11.00;99.90;;;;;;4870050;29;20528;-83
2022/11/24 13:08:20;;;;;;;5.50;0.47;;;11.00;99.90;;;;;;4866314;29;20030;-82
2022/11/24 13:10:46;;;;;;;8.85;1.10;;;11.10;99.90;;;;;;4870890;29;20029;-82